createdAt,value
2019-02-17T00:01:20.114Z,13.17
2019-02-17T00:03:50.963Z,13.00
2019-02-17T00:06:21.402Z,13.60
2019-02-17T00:08:51.878Z,12.23
2019-02-17T00:11:22.430Z,13.50
2019-02-17T00:13:53.217Z,13.40
2019-02-17T00:16:24.045Z,14.07
2019-02-17T00:18:54.490Z,12.90
2019-02-17T00:21:24.962Z,12.10
2019-02-17T00:23:55.398Z,12.37
2019-02-17T00:26:26.570Z,13.23
2019-02-17T00:28:59.601Z,13.17
2019-02-17T00:31:29.210Z,13.73
2019-02-17T00:33:59.702Z,13.87
2019-02-17T00:36:30.466Z,12.93
2019-02-17T00:39:00.913Z,14.30
2019-02-17T00:41:31.406Z,13.50
2019-02-17T00:44:01.950Z,13.07
2019-02-17T00:46:33.207Z,13.03
2019-02-17T00:49:03.715Z,12.83
2019-02-17T00:51:34.200Z,12.97
2019-02-17T00:54:04.639Z,13.20
2019-02-17T00:56:35.123Z,12.93
2019-02-17T00:59:10.140Z,13.17
2019-02-17T01:01:38.183Z,13.40
2019-02-17T01:04:09.254Z,12.83
2019-02-17T01:06:39.700Z,14.13
2019-02-17T01:09:10.204Z,14.87
2019-02-17T01:11:40.716Z,14.47
2019-02-17T01:14:11.540Z,14.90
2019-02-17T01:16:42.380Z,14.87
2019-02-17T01:19:13.399Z,14.83
2019-02-17T01:21:43.867Z,14.67
2019-02-17T01:24:14.318Z,14.90
2019-02-17T01:26:44.811Z,14.87
2019-02-17T01:29:20.425Z,13.60
2019-02-17T01:31:48.458Z,13.67
2019-02-17T01:34:18.949Z,13.70
2019-02-17T01:36:49.715Z,14.60
2019-02-17T01:39:20.158Z,13.20
2019-02-17T01:41:50.667Z,14.33
2019-02-17T01:44:21.487Z,14.63
2019-02-17T01:46:51.930Z,13.77
2019-02-17T01:49:22.851Z,14.60
2019-02-17T01:51:53.302Z,14.20
2019-02-17T01:54:23.742Z,12.67
2019-02-17T01:56:54.231Z,14.47
2019-02-17T01:59:30.576Z,14.07
2019-02-17T02:01:57.262Z,13.53
2019-02-17T02:04:27.754Z,14.57
2019-02-17T02:06:58.359Z,13.07
2019-02-17T02:09:29.199Z,13.30
2019-02-17T02:12:00.147Z,12.80
2019-02-17T02:14:30.753Z,14.40
2019-02-17T02:17:01.194Z,13.83
2019-02-17T02:19:31.684Z,14.83
2019-02-17T02:22:02.132Z,13.20
2019-02-17T02:24:32.847Z,14.53
2019-02-17T02:27:03.739Z,13.47
2019-02-17T02:29:41.170Z,14.37
2019-02-17T02:32:06.756Z,14.70
2019-02-17T02:34:37.232Z,14.20
2019-02-17T02:37:07.688Z,13.47
2019-02-17T02:39:38.476Z,14.93
2019-02-17T02:42:08.917Z,15.87
2019-02-17T02:44:39.535Z,12.73
2019-02-17T02:47:10.024Z,15.10
2019-02-17T02:49:40.460Z,14.13
2019-02-17T02:52:10.931Z,14.43
2019-02-17T02:54:41.409Z,14.93
2019-02-17T02:57:11.863Z,14.07
2019-02-17T02:59:52.220Z,14.23
2019-02-17T03:02:14.962Z,14.07
2019-02-17T03:04:45.414Z,14.17
2019-02-17T03:07:18.922Z,13.63
2019-02-17T03:09:49.708Z,15.10
2019-02-17T03:12:20.147Z,15.83
2019-02-17T03:14:51.550Z,13.60
2019-02-17T03:17:22.015Z,14.33
2019-02-17T03:19:52.664Z,13.63
2019-02-17T03:22:23.295Z,14.23
2019-02-17T03:24:54.633Z,14.57
2019-02-17T03:27:25.195Z,13.90
2019-02-17T03:30:05.194Z,13.80
2019-02-17T03:32:29.179Z,14.43
2019-02-17T03:34:59.621Z,13.67
2019-02-17T03:37:30.312Z,12.10
2019-02-17T03:40:02.030Z,12.10
2019-02-17T03:42:33.543Z,12.77
2019-02-17T03:45:05.202Z,13.53
2019-02-17T03:47:35.722Z,13.30
2019-02-17T03:50:06.366Z,13.43
2019-02-17T03:52:36.858Z,12.37
2019-02-17T03:55:07.420Z,13.10
2019-02-17T03:57:37.994Z,13.90
2019-02-17T04:00:16.395Z,13.03
2019-02-17T04:02:40.612Z,12.83
2019-02-17T04:05:11.088Z,13.20
2019-02-17T04:07:41.530Z,13.87
2019-02-17T04:10:12.012Z,13.70
2019-02-17T04:12:42.449Z,12.70
2019-02-17T04:15:13.966Z,12.37
2019-02-17T04:17:44.410Z,13.00
2019-02-17T04:20:14.863Z,13.87
2019-02-17T04:22:45.352Z,13.60
2019-02-17T04:25:15.803Z,12.93
2019-02-17T04:27:46.640Z,12.37
2019-02-17T04:30:28.116Z,13.20
2019-02-17T04:32:49.649Z,13.67
2019-02-17T04:35:20.414Z,13.70
2019-02-17T04:37:50.915Z,12.67
2019-02-17T04:40:21.351Z,13.47
2019-02-17T04:42:51.799Z,12.33
2019-02-17T04:45:22.271Z,13.13
2019-02-17T04:47:53.181Z,13.10
2019-02-17T04:50:24.076Z,12.97
2019-02-17T04:52:54.554Z,13.77
2019-02-17T04:55:25.352Z,13.73
2019-02-17T04:57:56.216Z,13.67
2019-02-17T05:00:26.670Z,13.47
2019-02-17T05:02:57.159Z,12.87
2019-02-17T05:05:27.616Z,13.00
2019-02-17T05:07:58.057Z,14.33
2019-02-17T05:10:28.550Z,13.67
2019-02-17T05:12:59.362Z,13.47
2019-02-17T05:15:30.435Z,13.33
2019-02-17T05:18:00.924Z,12.67
2019-02-17T05:20:31.704Z,12.70
2019-02-17T05:23:02.146Z,12.87
2019-02-17T05:25:32.639Z,13.07
2019-02-17T05:28:03.089Z,12.53
2019-02-17T05:30:33.936Z,13.03
2019-02-17T05:33:04.414Z,13.20
2019-02-17T05:35:34.856Z,12.47
2019-02-17T05:38:05.359Z,12.53
2019-02-17T05:40:36.623Z,12.30
2019-02-17T05:43:07.957Z,12.50
2019-02-17T05:45:38.449Z,12.83
2019-02-17T05:48:09.925Z,13.13
2019-02-17T05:50:40.387Z,13.17
2019-02-17T05:53:11.686Z,13.73
2019-02-17T05:55:42.834Z,13.50
2019-02-17T05:58:13.278Z,12.43
2019-02-17T06:00:44.320Z,12.20
2019-02-17T06:03:15.157Z,13.70
2019-02-17T06:05:45.985Z,12.93
2019-02-17T06:08:16.763Z,12.83
2019-02-17T06:10:47.210Z,13.77
2019-02-17T06:13:18.331Z,12.63
2019-02-17T06:15:48.818Z,13.57
2019-02-17T06:18:19.262Z,13.87
2019-02-17T06:20:49.809Z,13.37
2019-02-17T06:23:20.416Z,14.07
2019-02-17T06:25:51.255Z,13.50
2019-02-17T06:28:22.067Z,12.93
2019-02-17T06:30:52.685Z,13.97
2019-02-17T06:33:23.478Z,14.10
2019-02-17T06:35:53.926Z,13.17
2019-02-17T06:38:24.374Z,12.97
2019-02-17T06:40:55.178Z,13.53
2019-02-17T06:43:25.791Z,14.20
2019-02-17T06:45:56.547Z,12.93
2019-02-17T06:48:27.367Z,14.47
2019-02-17T06:50:58.166Z,13.60
2019-02-17T06:53:28.954Z,14.90
2019-02-17T06:56:04.375Z,14.37
2019-02-17T06:58:34.883Z,13.30
2019-02-17T07:01:05.330Z,13.83
2019-02-17T07:03:36.052Z,14.37
2019-02-17T07:06:22.125Z,13.60
2019-02-17T07:08:53.094Z,13.93
2019-02-17T07:11:24.133Z,13.60
2019-02-17T07:13:54.916Z,13.27
2019-02-17T07:16:25.359Z,12.90
2019-02-17T07:18:55.810Z,13.77
2019-02-17T07:21:26.300Z,14.43
2019-02-17T07:23:57.086Z,14.23
2019-02-17T07:26:27.891Z,13.63
2019-02-17T07:28:58.378Z,12.40
2019-02-17T07:31:34.917Z,14.27
2019-02-17T07:34:01.358Z,14.57
2019-02-17T07:36:31.921Z,13.20
2019-02-17T07:39:02.371Z,13.93
2019-02-17T07:41:33.215Z,13.97
2019-02-17T07:44:03.728Z,14.30
2019-02-17T07:46:34.495Z,13.87
2019-02-17T07:49:04.966Z,14.30
2019-02-17T07:51:35.410Z,12.87
2019-02-17T07:54:05.970Z,13.50
2019-02-17T07:56:36.422Z,11.90
2019-02-17T07:59:06.909Z,13.03
2019-02-17T08:01:45.034Z,13.63
2019-02-17T08:04:10.198Z,12.63
2019-02-17T08:06:40.686Z,13.47
2019-02-17T08:09:11.467Z,13.33
2019-02-17T08:11:42.000Z,12.87
2019-02-17T08:14:12.490Z,12.73
2019-02-17T08:16:43.410Z,13.97
2019-02-17T08:19:13.870Z,13.80
2019-02-17T08:21:44.754Z,13.73
2019-02-17T08:24:15.855Z,13.53
2019-02-17T08:26:46.306Z,14.43
2019-02-17T08:29:17.469Z,13.40
2019-02-17T08:31:55.523Z,13.83
2019-02-17T08:34:20.459Z,12.90
2019-02-17T08:36:51.016Z,13.73
2019-02-17T08:39:21.549Z,13.47
2019-02-17T08:41:52.035Z,13.70
2019-02-17T08:44:23.591Z,13.37
2019-02-17T08:46:54.072Z,13.73
2019-02-17T08:49:24.575Z,12.80
2019-02-17T08:51:55.623Z,13.37
2019-02-17T08:54:27.353Z,13.70
2019-02-17T08:56:57.795Z,13.83
2019-02-17T08:59:28.555Z,14.40
2019-02-17T09:02:05.571Z,13.67
2019-02-17T09:04:31.146Z,13.43
2019-02-17T09:07:01.619Z,13.23
2019-02-17T09:09:32.069Z,13.73
2019-02-17T09:12:02.922Z,13.70
2019-02-17T09:14:33.381Z,14.60
2019-02-17T09:17:04.899Z,13.60
2019-02-17T09:19:36.091Z,13.77
2019-02-17T09:22:06.957Z,14.07
2019-02-17T09:24:37.825Z,13.47
2019-02-17T09:27:08.318Z,13.87
2019-02-17T09:29:39.146Z,14.27
2019-02-17T09:32:16.267Z,13.70
2019-02-17T09:34:42.195Z,13.10
2019-02-17T09:37:12.642Z,15.33
2019-02-17T09:39:43.483Z,13.63
2019-02-17T09:42:14.330Z,13.37
2019-02-17T09:44:44.780Z,13.57
2019-02-17T09:47:15.441Z,14.97
2019-02-17T09:49:45.902Z,13.53
2019-02-17T09:52:17.063Z,12.57
2019-02-17T09:54:48.010Z,13.47
2019-02-17T09:57:18.478Z,15.10
2019-02-17T09:59:48.928Z,13.97
2019-02-17T10:02:26.336Z,13.87
2019-02-17T10:04:51.580Z,13.40
2019-02-17T10:07:22.408Z,14.07
2019-02-17T10:09:52.938Z,14.20
2019-02-17T10:12:24.290Z,13.67
2019-02-17T10:14:55.436Z,14.50
2019-02-17T10:17:25.927Z,13.97
2019-02-17T10:19:56.380Z,13.30
2019-02-17T10:22:27.549Z,14.40
2019-02-17T10:24:58.781Z,13.27
2019-02-17T10:27:29.240Z,13.40
2019-02-17T10:29:59.696Z,13.53
2019-02-17T10:32:37.253Z,13.70
2019-02-17T10:35:02.363Z,13.40
2019-02-17T10:37:34.357Z,13.60
2019-02-17T10:40:05.895Z,14.23
2019-02-17T10:42:36.364Z,14.43
2019-02-17T10:45:07.291Z,14.33
2019-02-17T10:47:37.752Z,13.17
2019-02-17T10:50:08.923Z,14.20
2019-02-17T10:52:39.413Z,15.13
2019-02-17T10:55:10.342Z,14.20
2019-02-17T10:57:41.235Z,15.10
2019-02-17T11:00:13.801Z,14.77
2019-02-17T11:02:47.421Z,14.83
2019-02-17T11:05:17.257Z,14.47
2019-02-17T11:07:48.013Z,14.27
2019-02-17T11:10:18.621Z,15.33
2019-02-17T11:12:49.555Z,15.47
2019-02-17T11:15:20.256Z,14.67
2019-02-17T11:17:51.984Z,14.73
2019-02-17T11:20:24.455Z,14.73
2019-02-17T11:22:55.303Z,15.03
2019-02-17T11:25:26.195Z,14.70
2019-02-17T11:27:57.442Z,14.57
2019-02-17T11:30:27.978Z,15.43
2019-02-17T11:32:58.471Z,15.00
2019-02-17T11:35:29.986Z,15.20
2019-02-17T11:38:00.851Z,15.43
2019-02-17T11:40:31.306Z,15.27
2019-02-17T11:43:02.116Z,15.70
2019-02-17T11:45:33.437Z,15.07
2019-02-17T11:48:04.550Z,14.57
2019-02-17T11:50:35.070Z,15.00
2019-02-17T11:53:05.900Z,15.23
2019-02-17T11:55:37.032Z,15.17
2019-02-17T11:58:07.539Z,15.80
2019-02-17T12:00:38.561Z,15.83
2019-02-17T12:03:09.069Z,14.13
2019-02-17T12:05:39.524Z,14.23
2019-02-17T12:08:10.555Z,15.47
2019-02-17T12:10:41.080Z,15.00
2019-02-17T12:13:11.539Z,13.97
2019-02-17T12:15:42.056Z,15.70
2019-02-17T12:18:12.897Z,14.97
2019-02-17T12:20:54.247Z,14.33
2019-02-17T12:23:37.304Z,15.23
2019-02-17T12:26:36.272Z,14.67
2019-02-17T12:29:31.979Z,15.00
2019-02-17T12:32:02.502Z,14.83
2019-02-17T12:34:32.948Z,17.57
2019-02-17T12:37:03.406Z,15.63
2019-02-17T12:39:34.210Z,16.10
2019-02-17T12:42:04.655Z,14.57
2019-02-17T12:44:35.619Z,15.00
2019-02-17T12:47:06.295Z,14.83
2019-02-17T12:49:37.055Z,15.57
2019-02-17T12:52:07.511Z,14.97
2019-02-17T12:54:38.956Z,16.70
2019-02-17T12:57:09.444Z,16.00
2019-02-17T12:59:40.314Z,15.23
2019-02-17T13:02:10.813Z,16.30
2019-02-17T13:04:41.288Z,15.63
2019-02-17T13:07:11.749Z,15.43
2019-02-17T13:09:43.458Z,14.93
2019-02-17T13:12:14.397Z,15.43
2019-02-17T13:14:44.837Z,15.03
2019-02-17T13:17:15.316Z,15.47
2019-02-17T13:19:46.406Z,15.27
2019-02-17T13:22:16.897Z,15.93
2019-02-17T13:24:47.725Z,16.53
2019-02-17T13:27:18.193Z,15.47
2019-02-17T13:29:48.708Z,16.07
2019-02-17T13:32:19.519Z,15.27
2019-02-17T13:34:50.320Z,15.40
2019-02-17T13:37:21.577Z,14.97
2019-02-17T13:39:52.313Z,14.67
2019-02-17T13:42:22.768Z,15.60
2019-02-17T13:44:53.246Z,15.77
2019-02-17T13:47:23.710Z,14.63
2019-02-17T13:49:54.571Z,15.70
2019-02-17T13:52:25.026Z,15.57
2019-02-17T13:54:55.531Z,15.90
2019-02-17T13:57:25.989Z,14.93
2019-02-17T13:59:56.472Z,15.27
2019-02-17T14:02:27.294Z,13.90
2019-02-17T14:04:57.746Z,14.57
2019-02-17T14:07:29.279Z,15.40
2019-02-17T14:10:00.378Z,13.70
2019-02-17T14:12:31.126Z,15.10
2019-02-17T14:15:01.980Z,15.83
2019-02-17T14:17:32.724Z,15.27
2019-02-17T14:20:03.971Z,14.33
2019-02-17T14:22:34.871Z,14.87
2019-02-17T14:25:05.536Z,15.20
2019-02-17T14:27:35.996Z,15.30
2019-02-17T14:30:07.375Z,14.40
2019-02-17T14:32:37.830Z,15.30
2019-02-17T14:35:08.291Z,15.03
2019-02-17T14:37:39.503Z,12.87
2019-02-17T14:40:10.079Z,13.47
2019-02-17T14:42:40.603Z,13.83
2019-02-17T14:45:11.454Z,14.17
2019-02-17T14:47:42.290Z,13.13
2019-02-17T14:50:13.880Z,12.43
2019-02-17T14:52:44.343Z,12.97
2019-02-17T14:55:16.044Z,13.40
2019-02-17T14:57:47.027Z,13.60
2019-02-17T15:00:17.754Z,12.20
2019-02-17T15:02:48.621Z,12.10
2019-02-17T15:05:19.091Z,13.57
2019-02-17T15:07:49.595Z,13.17
2019-02-17T15:10:20.430Z,12.03
2019-02-17T15:12:51.049Z,12.13
2019-02-17T15:15:21.935Z,12.00
2019-02-17T15:17:53.183Z,11.50
2019-02-17T15:20:24.355Z,11.13
2019-02-17T15:22:54.832Z,11.53
2019-02-17T15:25:25.302Z,10.83
2019-02-17T15:27:56.132Z,11.20
2019-02-17T15:30:26.634Z,11.67
2019-02-17T15:33:04.138Z,10.63
2019-02-17T15:35:29.676Z,12.00
2019-02-17T15:38:00.195Z,11.77
2019-02-17T15:40:32.071Z,11.23
2019-02-17T15:43:03.464Z,12.13
2019-02-17T15:45:35.333Z,12.63
2019-02-17T15:48:05.789Z,11.10
2019-02-17T15:50:36.240Z,11.83
2019-02-17T15:53:07.086Z,11.37
2019-02-17T15:55:37.852Z,12.23
2019-02-17T15:58:08.381Z,11.90
2019-02-17T16:00:38.876Z,12.07
2019-02-17T16:03:09.332Z,12.53
2019-02-17T16:05:39.843Z,12.70
2019-02-17T16:08:10.684Z,12.10
2019-02-17T16:10:41.530Z,14.83
2019-02-17T16:13:12.019Z,12.70
2019-02-17T16:15:43.274Z,15.83
2019-02-17T16:18:14.869Z,13.43
2019-02-17T16:20:45.631Z,15.30
2019-02-17T16:23:16.077Z,13.03
2019-02-17T16:25:46.598Z,13.33
2019-02-17T16:28:17.322Z,14.93
2019-02-17T16:30:47.784Z,13.90
2019-02-17T16:33:18.299Z,13.53
2019-02-17T16:35:48.760Z,14.60
2019-02-17T16:38:19.232Z,14.47
2019-02-17T16:40:49.760Z,14.77
2019-02-17T16:43:20.539Z,14.53
2019-02-17T16:45:50.991Z,14.80
2019-02-17T16:48:21.469Z,13.10
2019-02-17T16:50:52.248Z,12.53
2019-02-17T16:53:23.197Z,13.43
2019-02-17T16:55:53.718Z,12.00
2019-02-17T16:58:24.536Z,11.20
2019-02-17T17:00:55.019Z,11.67
2019-02-17T17:03:25.469Z,12.40
2019-02-17T17:05:55.992Z,12.27
2019-02-17T17:08:26.460Z,10.87
2019-02-17T17:10:56.912Z,11.63
2019-02-17T17:13:27.435Z,12.03
2019-02-17T17:15:58.770Z,11.97
2019-02-17T17:18:29.238Z,12.27
2019-02-17T17:20:59.901Z,12.63
2019-02-17T17:23:30.372Z,12.93
2019-02-17T17:26:00.900Z,12.67
2019-02-17T17:28:31.363Z,13.40
2019-02-17T17:31:01.820Z,13.07
2019-02-17T17:33:32.331Z,15.23
2019-02-17T17:36:03.129Z,23.77
2019-02-17T17:38:33.587Z,14.97
2019-02-17T17:41:04.102Z,20.30
2019-02-17T17:43:35.051Z,25.53
2019-02-17T17:46:05.576Z,14.97
2019-02-17T17:48:41.860Z,13.40
2019-02-17T17:51:12.634Z,12.63
2019-02-17T17:53:44.903Z,12.27
2019-02-17T17:56:15.398Z,12.73
2019-02-17T17:58:45.847Z,12.00
2019-02-17T18:01:16.388Z,13.53
2019-02-17T18:03:46.848Z,12.87
2019-02-17T18:06:25.507Z,12.83
2019-02-17T18:08:55.987Z,12.50
2019-02-17T18:11:26.452Z,13.33
2019-02-17T18:13:57.525Z,11.37
2019-02-17T18:16:28.388Z,12.80
2019-02-17T18:18:59.642Z,12.33
2019-02-17T18:21:30.090Z,11.90
2019-02-17T18:24:00.867Z,11.20
2019-02-17T18:26:32.055Z,11.80
2019-02-17T18:29:02.885Z,12.67
2019-02-17T18:31:35.124Z,12.03
2019-02-17T18:34:05.604Z,11.80
2019-02-17T18:36:36.094Z,11.60
2019-02-17T18:39:09.431Z,11.87
2019-02-17T18:41:42.318Z,11.97
2019-02-17T18:44:13.339Z,11.07
2019-02-17T18:46:44.394Z,11.43
2019-02-17T18:49:16.624Z,10.83
2019-02-17T18:51:47.456Z,11.50
2019-02-17T18:54:17.905Z,11.07
2019-02-17T18:56:48.673Z,11.30
2019-02-17T18:59:19.181Z,11.53
2019-02-17T19:01:53.098Z,12.30
2019-02-17T19:04:25.905Z,11.97
2019-02-17T19:06:58.141Z,11.20
2019-02-17T19:09:28.592Z,11.50
2019-02-17T19:11:59.499Z,11.87
2019-02-17T19:14:30.379Z,11.43
2019-02-17T19:17:00.859Z,12.03
2019-02-17T19:19:31.339Z,11.83
2019-02-17T19:22:02.179Z,10.63
2019-02-17T19:24:33.167Z,10.47
2019-02-17T19:27:03.930Z,10.33
2019-02-17T19:29:35.208Z,10.07
2019-02-17T19:32:05.674Z,10.80
2019-02-17T19:34:36.623Z,9.00
2019-02-17T19:37:07.111Z,10.63
2019-02-17T19:39:40.867Z,10.03
2019-02-17T19:42:11.751Z,10.03
2019-02-17T19:44:43.752Z,9.83
2019-02-17T19:47:14.206Z,10.50
2019-02-17T19:49:44.697Z,11.70
2019-02-17T19:52:17.779Z,10.33
2019-02-17T19:54:48.765Z,10.27
2019-02-17T19:57:19.591Z,9.33
2019-02-17T19:59:50.050Z,9.30
2019-02-17T20:02:33.714Z,8.73
2019-02-17T20:05:14.387Z,8.53
2019-02-17T20:07:44.872Z,9.37
2019-02-17T20:10:16.868Z,9.93
2019-02-17T20:12:47.319Z,9.33
2019-02-17T20:15:20.910Z,9.40
2019-02-17T20:17:52.314Z,9.37
2019-02-17T20:20:24.296Z,8.10
2019-02-17T20:22:55.063Z,9.30
2019-02-17T20:25:25.518Z,8.43
2019-02-17T20:27:56.804Z,8.73
2019-02-17T20:30:27.269Z,9.10
2019-02-17T20:32:58.144Z,9.40
2019-02-17T20:35:29.363Z,8.90
2019-02-17T20:38:00.203Z,10.20
2019-02-17T20:40:31.075Z,8.93
2019-02-17T20:43:01.879Z,9.50
2019-02-17T20:45:32.392Z,9.43
2019-02-17T20:48:03.261Z,9.13
2019-02-17T20:50:36.815Z,9.20
2019-02-17T20:53:07.566Z,9.40
2019-02-17T20:55:40.518Z,9.77
2019-02-17T20:58:11.062Z,9.40
2019-02-17T21:00:41.581Z,9.53
2019-02-17T21:03:12.054Z,9.80
2019-02-17T21:05:42.933Z,9.67
2019-02-17T21:08:13.395Z,10.40
2019-02-17T21:10:45.266Z,9.00
2019-02-17T21:13:15.720Z,9.50
2019-02-17T21:15:46.496Z,9.47
2019-02-17T21:18:16.965Z,10.03
2019-02-17T21:20:47.417Z,9.10
2019-02-17T21:23:17.985Z,9.60
2019-02-17T21:25:48.449Z,8.93
2019-02-17T21:28:18.974Z,8.93
2019-02-17T21:30:50.692Z,10.17
2019-02-17T21:33:21.295Z,10.70
2019-02-17T21:35:54.247Z,10.03
2019-02-17T21:38:24.706Z,10.43
2019-02-17T21:40:55.886Z,9.30
2019-02-17T21:43:26.790Z,8.57
2019-02-17T21:45:58.073Z,9.20
2019-02-17T21:48:28.563Z,9.70
2019-02-17T21:50:59.009Z,9.37
2019-02-17T21:53:29.466Z,8.73
2019-02-17T21:55:59.951Z,7.77
2019-02-17T21:58:30.411Z,9.10
2019-02-17T22:01:03.204Z,9.13
2019-02-17T22:03:33.406Z,8.90
2019-02-17T22:06:03.875Z,9.43
2019-02-17T22:08:34.386Z,9.23
2019-02-17T22:11:04.839Z,8.33
2019-02-17T22:13:35.670Z,8.93
2019-02-17T22:16:06.173Z,8.27
2019-02-17T22:18:37.484Z,9.00
2019-02-17T22:21:08.599Z,9.20
2019-02-17T22:23:40.094Z,8.63
2019-02-17T22:26:10.608Z,8.50
2019-02-17T22:28:41.094Z,8.57
2019-02-17T22:31:13.589Z,9.10
2019-02-17T22:33:44.121Z,9.50
2019-02-17T22:36:14.586Z,9.40
2019-02-17T22:38:45.029Z,9.10
2019-02-17T22:41:15.512Z,8.23
2019-02-17T22:43:46.027Z,9.03
2019-02-17T22:46:17.175Z,8.60
2019-02-17T22:48:48.029Z,9.20
2019-02-17T22:51:18.465Z,9.17
2019-02-17T22:53:49.291Z,8.27
2019-02-17T22:56:19.783Z,8.43
2019-02-17T22:58:50.239Z,8.60
2019-02-17T23:01:26.607Z,8.53
2019-02-17T23:03:57.362Z,8.27
2019-02-17T23:06:27.807Z,8.47
2019-02-17T23:08:58.673Z,8.63
2019-02-17T23:11:29.109Z,8.67
2019-02-17T23:13:59.905Z,8.30
2019-02-17T23:16:30.341Z,8.43
2019-02-17T23:19:01.174Z,8.57
2019-02-17T23:21:31.660Z,9.03
2019-02-17T23:24:02.089Z,8.07
2019-02-17T23:26:32.813Z,8.00
2019-02-17T23:29:03.315Z,8.40
2019-02-17T23:31:34.077Z,8.47
2019-02-17T23:34:04.518Z,8.10
2019-02-17T23:36:35.392Z,8.67
2019-02-17T23:39:07.648Z,7.73
2019-02-17T23:41:38.089Z,8.57
2019-02-17T23:44:08.581Z,7.50
2019-02-17T23:46:39.142Z,8.20
2019-02-17T23:49:09.579Z,8.10
2019-02-17T23:51:40.440Z,7.90
2019-02-17T23:54:10.883Z,8.20
2019-02-17T23:56:41.325Z,7.83
2019-02-17T23:59:12.160Z,7.27
